sensor_id;sensor_type;location;lat;lon;timestamp;P1;durP1;ratioP1;P2;durP2;ratioP2
75793;SDS011;64418;47.536;19.074;2023-01-28T00:01:18;27.13;;;12.30;;
75793;SDS011;64418;47.536;19.074;2023-01-28T00:03:47;28.87;;;11.65;;
75793;SDS011;64418;47.536;19.074;2023-01-28T00:06:14;26.10;;;11.85;;
75793;SDS011;64418;47.536;19.074;2023-01-28T00:08:41;22.62;;;10.45;;
75793;SDS011;64418;47.536;19.074;2023-01-28T00:11:08;26.95;;;12.40;;
75793;SDS011;64418;47.536;19.074;2023-01-28T00:13:35;28.50;;;11.67;;
75793;SDS011;64418;47.536;19.074;2023-01-28T00:16:02;31.40;;;11.77;;
75793;SDS011;64418;47.536;19.074;2023-01-28T00:18:31;26.08;;;11.20;;
75793;SDS011;64418;47.536;19.074;2023-01-28T00:20:58;26.73;;;12.30;;
75793;SDS011;64418;47.536;19.074;2023-01-28T00:23:24;26.05;;;11.73;;
75793;SDS011;64418;47.536;19.074;2023-01-28T00:25:52;27.00;;;11.23;;
75793;SDS011;64418;47.536;19.074;2023-01-28T00:28:18;25.17;;;11.00;;
75793;SDS011;64418;47.536;19.074;2023-01-28T00:30:44;26.48;;;12.10;;
75793;SDS011;64418;47.536;19.074;2023-01-28T00:33:09;23.17;;;9.60;;
75793;SDS011;64418;47.536;19.074;2023-01-28T00:35:35;27.42;;;10.95;;
75793;SDS011;64418;47.536;19.074;2023-01-28T00:38:01;27.37;;;12.30;;
75793;SDS011;64418;47.536;19.074;2023-01-28T00:40:27;28.13;;;11.67;;
75793;SDS011;64418;47.536;19.074;2023-01-28T00:42:55;29.70;;;12.73;;
75793;SDS011;64418;47.536;19.074;2023-01-28T00:45:21;27.48;;;11.68;;
75793;SDS011;64418;47.536;19.074;2023-01-28T00:47:47;24.35;;;11.35;;
75793;SDS011;64418;47.536;19.074;2023-01-28T00:50:12;23.13;;;10.97;;
75793;SDS011;64418;47.536;19.074;2023-01-28T00:52:38;22.15;;;9.82;;
75793;SDS011;64418;47.536;19.074;2023-01-28T00:55:05;26.10;;;11.63;;
75793;SDS011;64418;47.536;19.074;2023-01-28T00:57:31;25.97;;;11.23;;
75793;SDS011;64418;47.536;19.074;2023-01-28T01:00:19;25.27;;;11.25;;
75793;SDS011;64418;47.536;19.074;2023-01-28T01:02:45;26.85;;;11.88;;
75793;SDS011;64418;47.536;19.074;2023-01-28T01:05:12;25.77;;;11.15;;
75793;SDS011;64418;47.536;19.074;2023-01-28T01:07:39;26.73;;;11.52;;
75793;SDS011;64418;47.536;19.074;2023-01-28T01:10:06;24.63;;;10.53;;
75793;SDS011;64418;47.536;19.074;2023-01-28T01:12:33;19.37;;;9.88;;
75793;SDS011;64418;47.536;19.074;2023-01-28T01:14:59;25.05;;;10.85;;
75793;SDS011;64418;47.536;19.074;2023-01-28T01:17:28;27.13;;;12.03;;
75793;SDS011;64418;47.536;19.074;2023-01-28T01:19:54;24.70;;;10.25;;
75793;SDS011;64418;47.536;19.074;2023-01-28T01:22:20;22.70;;;9.88;;
75793;SDS011;64418;47.536;19.074;2023-01-28T01:24:46;28.00;;;12.30;;
75793;SDS011;64418;47.536;19.074;2023-01-28T01:27:12;23.80;;;11.00;;
75793;SDS011;64418;47.536;19.074;2023-01-28T01:29:38;28.57;;;12.00;;
75793;SDS011;64418;47.536;19.074;2023-01-28T01:32:06;24.12;;;11.02;;
75793;SDS011;64418;47.536;19.074;2023-01-28T01:34:33;25.35;;;11.68;;
75793;SDS011;64418;47.536;19.074;2023-01-28T01:36:59;26.57;;;11.33;;
75793;SDS011;64418;47.536;19.074;2023-01-28T01:39:25;29.95;;;12.25;;
75793;SDS011;64418;47.536;19.074;2023-01-28T01:41:50;27.10;;;11.93;;
75793;SDS011;64418;47.536;19.074;2023-01-28T01:47:19;29.15;;;11.65;;
75793;SDS011;64418;47.536;19.074;2023-01-28T01:49:51;31.17;;;12.48;;
75793;SDS011;64418;47.536;19.074;2023-01-28T01:52:18;28.27;;;10.80;;
75793;SDS011;64418;47.536;19.074;2023-01-28T01:54:49;32.53;;;12.20;;
75793;SDS011;64418;47.536;19.074;2023-01-28T01:57:21;25.20;;;9.80;;
75793;SDS011;64418;47.536;19.074;2023-01-28T01:59:51;26.08;;;12.50;;
75793;SDS011;64418;47.536;19.074;2023-01-28T02:02:19;29.63;;;12.82;;
75793;SDS011;64418;47.536;19.074;2023-01-28T02:04:46;27.07;;;11.13;;
75793;SDS011;64418;47.536;19.074;2023-01-28T02:07:14;33.50;;;11.93;;
75793;SDS011;64418;47.536;19.074;2023-01-28T02:09:42;26.95;;;11.77;;
75793;SDS011;64418;47.536;19.074;2023-01-28T02:12:08;29.50;;;12.53;;
75793;SDS011;64418;47.536;19.074;2023-01-28T02:14:41;33.42;;;12.65;;
75793;SDS011;64418;47.536;19.074;2023-01-28T02:17:09;28.33;;;11.25;;
75793;SDS011;64418;47.536;19.074;2023-01-28T02:19:36;30.53;;;12.83;;
75793;SDS011;64418;47.536;19.074;2023-01-28T02:22:07;32.93;;;12.83;;
75793;SDS011;64418;47.536;19.074;2023-01-28T02:25:01;33.13;;;13.68;;
75793;SDS011;64418;47.536;19.074;2023-01-28T02:30:39;32.83;;;13.80;;
75793;SDS011;64418;47.536;19.074;2023-01-28T02:33:09;27.70;;;12.18;;
75793;SDS011;64418;47.536;19.074;2023-01-28T02:35:44;32.70;;;12.40;;
75793;SDS011;64418;47.536;19.074;2023-01-28T02:38:14;35.50;;;13.00;;
75793;SDS011;64418;47.536;19.074;2023-01-28T02:40:44;27.20;;;12.05;;
75793;SDS011;64418;47.536;19.074;2023-01-28T02:43:18;29.85;;;12.65;;
75793;SDS011;64418;47.536;19.074;2023-01-28T02:45:54;31.65;;;12.85;;
75793;SDS011;64418;47.536;19.074;2023-01-28T02:48:21;31.50;;;12.07;;
75793;SDS011;64418;47.536;19.074;2023-01-28T02:50:48;32.50;;;12.50;;
75793;SDS011;64418;47.536;19.074;2023-01-28T02:53:22;35.65;;;13.55;;
75793;SDS011;64418;47.536;19.074;2023-01-28T02:55:52;22.52;;;9.18;;
75793;SDS011;64418;47.536;19.074;2023-01-28T02:58:27;34.50;;;12.60;;
75793;SDS011;64418;47.536;19.074;2023-01-28T03:01:00;25.83;;;10.98;;
75793;SDS011;64418;47.536;19.074;2023-01-28T03:03:35;29.95;;;11.98;;
75793;SDS011;64418;47.536;19.074;2023-01-28T03:06:08;36.08;;;13.77;;
75793;SDS011;64418;47.536;19.074;2023-01-28T03:08:39;31.92;;;13.23;;
75793;SDS011;64418;47.536;19.074;2023-01-28T03:11:09;30.83;;;12.50;;
75793;SDS011;64418;47.536;19.074;2023-01-28T03:13:37;32.53;;;12.82;;
75793;SDS011;64418;47.536;19.074;2023-01-28T03:16:03;32.08;;;13.70;;
75793;SDS011;64418;47.536;19.074;2023-01-28T03:18:29;32.95;;;12.45;;
75793;SDS011;64418;47.536;19.074;2023-01-28T03:21:01;28.50;;;11.53;;
75793;SDS011;64418;47.536;19.074;2023-01-28T03:23:32;30.08;;;12.07;;
75793;SDS011;64418;47.536;19.074;2023-01-28T03:26:04;29.63;;;12.32;;
75793;SDS011;64418;47.536;19.074;2023-01-28T03:28:32;28.48;;;11.48;;
75793;SDS011;64418;47.536;19.074;2023-01-28T03:31:03;30.17;;;13.07;;
75793;SDS011;64418;47.536;19.074;2023-01-28T03:33:32;31.40;;;14.00;;
75793;SDS011;64418;47.536;19.074;2023-01-28T03:36:00;32.83;;;12.77;;
75793;SDS011;64418;47.536;19.074;2023-01-28T03:38:27;32.78;;;14.07;;
75793;SDS011;64418;47.536;19.074;2023-01-28T03:40:54;28.63;;;11.90;;
75793;SDS011;64418;47.536;19.074;2023-01-28T03:43:21;29.77;;;13.32;;
75793;SDS011;64418;47.536;19.074;2023-01-28T03:45:48;31.30;;;14.25;;
75793;SDS011;64418;47.536;19.074;2023-01-28T03:48:15;36.70;;;14.10;;
75793;SDS011;64418;47.536;19.074;2023-01-28T03:50:41;35.00;;;13.98;;
75793;SDS011;64418;47.536;19.074;2023-01-28T03:53:07;33.13;;;13.83;;
75793;SDS011;64418;47.536;19.074;2023-01-28T03:55:32;31.58;;;13.50;;
75793;SDS011;64418;47.536;19.074;2023-01-28T03:58:01;32.57;;;13.60;;
75793;SDS011;64418;47.536;19.074;2023-01-28T04:00:27;32.38;;;12.68;;
75793;SDS011;64418;47.536;19.074;2023-01-28T04:02:55;29.00;;;12.20;;
75793;SDS011;64418;47.536;19.074;2023-01-28T04:05:22;37.17;;;14.93;;
75793;SDS011;64418;47.536;19.074;2023-01-28T04:07:49;34.20;;;13.07;;
75793;SDS011;64418;47.536;19.074;2023-01-28T04:10:15;30.92;;;12.90;;
75793;SDS011;64418;47.536;19.074;2023-01-28T04:12:41;35.05;;;15.48;;
75793;SDS011;64418;47.536;19.074;2023-01-28T04:15:07;27.00;;;11.77;;
75793;SDS011;64418;47.536;19.074;2023-01-28T04:17:33;35.53;;;13.60;;
75793;SDS011;64418;47.536;19.074;2023-01-28T04:19:59;31.60;;;12.80;;
75793;SDS011;64418;47.536;19.074;2023-01-28T04:22:26;33.53;;;14.67;;
75793;SDS011;64418;47.536;19.074;2023-01-28T04:24:53;37.97;;;13.85;;
75793;SDS011;64418;47.536;19.074;2023-01-28T04:27:18;31.33;;;13.77;;
75793;SDS011;64418;47.536;19.074;2023-01-28T04:29:44;29.15;;;13.05;;
75793;SDS011;64418;47.536;19.074;2023-01-28T04:32:10;31.33;;;14.00;;
75793;SDS011;64418;47.536;19.074;2023-01-28T04:34:35;25.58;;;11.98;;
75793;SDS011;64418;47.536;19.074;2023-01-28T04:37:01;37.28;;;14.45;;
75793;SDS011;64418;47.536;19.074;2023-01-28T04:39:29;34.77;;;13.30;;
75793;SDS011;64418;47.536;19.074;2023-01-28T04:41:55;38.63;;;15.38;;
75793;SDS011;64418;47.536;19.074;2023-01-28T04:44:20;31.08;;;12.85;;
75793;SDS011;64418;47.536;19.074;2023-01-28T04:46:46;31.73;;;13.40;;
75793;SDS011;64418;47.536;19.074;2023-01-28T04:49:12;33.60;;;13.30;;
75793;SDS011;64418;47.536;19.074;2023-01-28T04:51:37;35.07;;;13.90;;
75793;SDS011;64418;47.536;19.074;2023-01-28T04:54:03;28.85;;;12.60;;
75793;SDS011;64418;47.536;19.074;2023-01-28T04:56:31;36.40;;;14.33;;
75793;SDS011;64418;47.536;19.074;2023-01-28T04:58:57;34.75;;;14.60;;
75793;SDS011;64418;47.536;19.074;2023-01-28T05:01:23;44.97;;;16.23;;
75793;SDS011;64418;47.536;19.074;2023-01-28T05:03:49;29.58;;;12.80;;
75793;SDS011;64418;47.536;19.074;2023-01-28T05:06:15;32.10;;;13.03;;
75793;SDS011;64418;47.536;19.074;2023-01-28T05:08:41;35.88;;;15.00;;
75793;SDS011;64418;47.536;19.074;2023-01-28T05:11:07;36.90;;;16.10;;
75793;SDS011;64418;47.536;19.074;2023-01-28T05:13:34;39.53;;;15.70;;
75793;SDS011;64418;47.536;19.074;2023-01-28T05:16:00;33.15;;;13.85;;
75793;SDS011;64418;47.536;19.074;2023-01-28T05:18:29;29.37;;;12.90;;
75793;SDS011;64418;47.536;19.074;2023-01-28T05:20:55;33.97;;;13.40;;
75793;SDS011;64418;47.536;19.074;2023-01-28T05:23:23;33.20;;;13.07;;
75793;SDS011;64418;47.536;19.074;2023-01-28T05:25:49;38.60;;;15.15;;
75793;SDS011;64418;47.536;19.074;2023-01-28T05:28:15;42.50;;;14.33;;
75793;SDS011;64418;47.536;19.074;2023-01-28T05:30:42;37.63;;;14.75;;
75793;SDS011;64418;47.536;19.074;2023-01-28T05:33:08;34.17;;;13.55;;
75793;SDS011;64418;47.536;19.074;2023-01-28T05:35:33;35.47;;;13.83;;
75793;SDS011;64418;47.536;19.074;2023-01-28T05:37:59;33.88;;;13.80;;
75793;SDS011;64418;47.536;19.074;2023-01-28T05:40:25;32.87;;;14.33;;
75793;SDS011;64418;47.536;19.074;2023-01-28T05:42:50;28.62;;;11.77;;
75793;SDS011;64418;47.536;19.074;2023-01-28T05:45:17;34.67;;;13.82;;
75793;SDS011;64418;47.536;19.074;2023-01-28T05:47:44;39.03;;;15.03;;
75793;SDS011;64418;47.536;19.074;2023-01-28T05:50:10;42.15;;;15.30;;
75793;SDS011;64418;47.536;19.074;2023-01-28T05:52:37;36.97;;;13.30;;
75793;SDS011;64418;47.536;19.074;2023-01-28T05:55:04;38.55;;;15.60;;
75793;SDS011;64418;47.536;19.074;2023-01-28T05:57:31;34.20;;;12.90;;
75793;SDS011;64418;47.536;19.074;2023-01-28T05:59:56;39.90;;;15.45;;
75793;SDS011;64418;47.536;19.074;2023-01-28T06:02:23;30.58;;;13.77;;
75793;SDS011;64418;47.536;19.074;2023-01-28T06:04:50;34.07;;;14.10;;
75793;SDS011;64418;47.536;19.074;2023-01-28T06:07:15;31.60;;;14.20;;
75793;SDS011;64418;47.536;19.074;2023-01-28T06:09:41;42.15;;;16.37;;
75793;SDS011;64418;47.536;19.074;2023-01-28T06:12:07;41.90;;;16.27;;
75793;SDS011;64418;47.536;19.074;2023-01-28T06:14:32;37.38;;;15.82;;
75793;SDS011;64418;47.536;19.074;2023-01-28T06:16:58;40.83;;;17.07;;
75793;SDS011;64418;47.536;19.074;2023-01-28T06:19:24;41.22;;;16.35;;
75793;SDS011;64418;47.536;19.074;2023-01-28T06:21:51;42.85;;;16.20;;
75793;SDS011;64418;47.536;19.074;2023-01-28T06:24:17;42.47;;;16.30;;
75793;SDS011;64418;47.536;19.074;2023-01-28T06:26:43;35.80;;;14.98;;
75793;SDS011;64418;47.536;19.074;2023-01-28T06:29:09;39.47;;;15.77;;
75793;SDS011;64418;47.536;19.074;2023-01-28T06:31:35;47.05;;;17.87;;
75793;SDS011;64418;47.536;19.074;2023-01-28T06:34:01;32.87;;;13.70;;
75793;SDS011;64418;47.536;19.074;2023-01-28T06:36:27;37.53;;;14.18;;
75793;SDS011;64418;47.536;19.074;2023-01-28T06:38:55;42.20;;;16.93;;
75793;SDS011;64418;47.536;19.074;2023-01-28T06:41:20;36.22;;;14.50;;
75793;SDS011;64418;47.536;19.074;2023-01-28T06:43:46;42.27;;;15.43;;
75793;SDS011;64418;47.536;19.074;2023-01-28T06:46:15;44.07;;;16.03;;
75793;SDS011;64418;47.536;19.074;2023-01-28T06:48:41;46.80;;;17.12;;
75793;SDS011;64418;47.536;19.074;2023-01-28T06:51:07;37.53;;;14.30;;
75793;SDS011;64418;47.536;19.074;2023-01-28T06:53:33;36.30;;;13.70;;
75793;SDS011;64418;47.536;19.074;2023-01-28T06:56:00;43.57;;;17.13;;
75793;SDS011;64418;47.536;19.074;2023-01-28T06:58:25;31.62;;;13.30;;
75793;SDS011;64418;47.536;19.074;2023-01-28T07:00:51;35.90;;;14.23;;
75793;SDS011;64418;47.536;19.074;2023-01-28T07:03:17;32.67;;;13.30;;
75793;SDS011;64418;47.536;19.074;2023-01-28T07:05:43;36.47;;;14.53;;
75793;SDS011;64418;47.536;19.074;2023-01-28T07:08:09;32.60;;;11.52;;
75793;SDS011;64418;47.536;19.074;2023-01-28T07:10:35;34.03;;;13.73;;
75793;SDS011;64418;47.536;19.074;2023-01-28T07:13:02;36.93;;;15.13;;
75793;SDS011;64418;47.536;19.074;2023-01-28T07:15:29;44.03;;;16.77;;
75793;SDS011;64418;47.536;19.074;2023-01-28T07:17:55;47.28;;;17.10;;
75793;SDS011;64418;47.536;19.074;2023-01-28T07:20:21;39.88;;;17.37;;
75793;SDS011;64418;47.536;19.074;2023-01-28T07:22:47;37.83;;;14.90;;
75793;SDS011;64418;47.536;19.074;2023-01-28T07:25:13;41.67;;;14.30;;
75793;SDS011;64418;47.536;19.074;2023-01-28T07:27:44;43.78;;;16.30;;
75793;SDS011;64418;47.536;19.074;2023-01-28T07:30:13;45.28;;;16.23;;
75793;SDS011;64418;47.536;19.074;2023-01-28T07:32:39;38.07;;;15.57;;
75793;SDS011;64418;47.536;19.074;2023-01-28T07:35:05;42.22;;;17.52;;
75793;SDS011;64418;47.536;19.074;2023-01-28T07:37:31;39.33;;;14.57;;
75793;SDS011;64418;47.536;19.074;2023-01-28T07:39:57;33.93;;;13.17;;
75793;SDS011;64418;47.536;19.074;2023-01-28T07:42:23;34.40;;;14.43;;
75793;SDS011;64418;47.536;19.074;2023-01-28T07:44:49;42.70;;;16.53;;
75793;SDS011;64418;47.536;19.074;2023-01-28T07:47:19;39.17;;;14.75;;
75793;SDS011;64418;47.536;19.074;2023-01-28T07:49:44;34.08;;;14.73;;
75793;SDS011;64418;47.536;19.074;2023-01-28T07:52:10;38.30;;;14.87;;
75793;SDS011;64418;47.536;19.074;2023-01-28T07:54:39;33.25;;;13.45;;
75793;SDS011;64418;47.536;19.074;2023-01-28T07:57:06;41.77;;;16.10;;
75793;SDS011;64418;47.536;19.074;2023-01-28T07:59:32;33.70;;;13.85;;
75793;SDS011;64418;47.536;19.074;2023-01-28T08:01:58;40.70;;;16.03;;
75793;SDS011;64418;47.536;19.074;2023-01-28T08:04:28;42.30;;;15.90;;
75793;SDS011;64418;47.536;19.074;2023-01-28T08:06:54;24.05;;;10.80;;
75793;SDS011;64418;47.536;19.074;2023-01-28T08:09:21;22.77;;;10.00;;
75793;SDS011;64418;47.536;19.074;2023-01-28T08:11:46;43.63;;;17.50;;
75793;SDS011;64418;47.536;19.074;2023-01-28T08:14:12;40.85;;;16.08;;
75793;SDS011;64418;47.536;19.074;2023-01-28T08:16:38;40.07;;;14.87;;
75793;SDS011;64418;47.536;19.074;2023-01-28T08:19:04;33.63;;;13.27;;
75793;SDS011;64418;47.536;19.074;2023-01-28T08:21:33;39.58;;;16.55;;
75793;SDS011;64418;47.536;19.074;2023-01-28T08:24:01;37.75;;;14.87;;
75793;SDS011;64418;47.536;19.074;2023-01-28T08:26:28;36.92;;;14.75;;
75793;SDS011;64418;47.536;19.074;2023-01-28T08:28:54;36.00;;;13.90;;
75793;SDS011;64418;47.536;19.074;2023-01-28T08:31:19;33.10;;;14.57;;
75793;SDS011;64418;47.536;19.074;2023-01-28T08:33:45;37.83;;;13.90;;
75793;SDS011;64418;47.536;19.074;2023-01-28T08:36:11;32.40;;;13.40;;
75793;SDS011;64418;47.536;19.074;2023-01-28T08:38:38;33.25;;;13.93;;
75793;SDS011;64418;47.536;19.074;2023-01-28T08:41:05;37.97;;;14.37;;
75793;SDS011;64418;47.536;19.074;2023-01-28T08:43:31;44.00;;;15.50;;
75793;SDS011;64418;47.536;19.074;2023-01-28T08:45:57;41.20;;;15.98;;
75793;SDS011;64418;47.536;19.074;2023-01-28T08:48:23;31.87;;;12.87;;
75793;SDS011;64418;47.536;19.074;2023-01-28T08:50:48;29.35;;;13.40;;
75793;SDS011;64418;47.536;19.074;2023-01-28T08:53:15;28.20;;;12.02;;
75793;SDS011;64418;47.536;19.074;2023-01-28T08:55:44;36.80;;;14.47;;
75793;SDS011;64418;47.536;19.074;2023-01-28T08:58:10;35.70;;;14.80;;
75793;SDS011;64418;47.536;19.074;2023-01-28T09:00:37;32.33;;;14.18;;
75793;SDS011;64418;47.536;19.074;2023-01-28T09:03:04;35.95;;;14.02;;
75793;SDS011;64418;47.536;19.074;2023-01-28T09:05:30;38.38;;;15.95;;
75793;SDS011;64418;47.536;19.074;2023-01-28T09:07:56;31.37;;;12.53;;
75793;SDS011;64418;47.536;19.074;2023-01-28T09:10:25;31.77;;;14.02;;
75793;SDS011;64418;47.536;19.074;2023-01-28T09:12:55;32.03;;;14.15;;
75793;SDS011;64418;47.536;19.074;2023-01-28T09:15:20;37.97;;;14.98;;
75793;SDS011;64418;47.536;19.074;2023-01-28T09:17:47;31.73;;;13.50;;
75793;SDS011;64418;47.536;19.074;2023-01-28T09:20:13;31.97;;;13.83;;
75793;SDS011;64418;47.536;19.074;2023-01-28T09:22:39;34.75;;;14.25;;
75793;SDS011;64418;47.536;19.074;2023-01-28T09:25:06;33.17;;;13.27;;
75793;SDS011;64418;47.536;19.074;2023-01-28T09:27:32;33.33;;;13.48;;
75793;SDS011;64418;47.536;19.074;2023-01-28T09:29:59;34.72;;;15.10;;
75793;SDS011;64418;47.536;19.074;2023-01-28T09:32:25;32.37;;;14.77;;
75793;SDS011;64418;47.536;19.074;2023-01-28T09:34:51;32.95;;;14.05;;
75793;SDS011;64418;47.536;19.074;2023-01-28T09:37:17;33.15;;;13.52;;
75793;SDS011;64418;47.536;19.074;2023-01-28T09:39:43;32.17;;;12.73;;
75793;SDS011;64418;47.536;19.074;2023-01-28T09:42:15;30.58;;;13.77;;
75793;SDS011;64418;47.536;19.074;2023-01-28T09:44:56;29.87;;;13.23;;
75793;SDS011;64418;47.536;19.074;2023-01-28T09:47:29;33.85;;;13.90;;
75793;SDS011;64418;47.536;19.074;2023-01-28T09:50:00;31.17;;;13.00;;
75793;SDS011;64418;47.536;19.074;2023-01-28T09:52:33;27.27;;;11.85;;
75793;SDS011;64418;47.536;19.074;2023-01-28T09:55:01;30.75;;;12.70;;
75793;SDS011;64418;47.536;19.074;2023-01-28T09:57:29;31.50;;;13.53;;
75793;SDS011;64418;47.536;19.074;2023-01-28T10:00:07;35.55;;;14.82;;
75793;SDS011;64418;47.536;19.074;2023-01-28T10:02:40;30.05;;;13.02;;
75793;SDS011;64418;47.536;19.074;2023-01-28T10:05:25;27.65;;;12.98;;
75793;SDS011;64418;47.536;19.074;2023-01-28T10:08:00;35.30;;;14.20;;
75793;SDS011;64418;47.536;19.074;2023-01-28T10:10:38;33.13;;;12.87;;
75793;SDS011;64418;47.536;19.074;2023-01-28T10:13:14;29.55;;;12.80;;
75793;SDS011;64418;47.536;19.074;2023-01-28T10:15:55;30.02;;;12.95;;
75793;SDS011;64418;47.536;19.074;2023-01-28T10:18:32;30.92;;;13.15;;
75793;SDS011;64418;47.536;19.074;2023-01-28T10:21:04;26.12;;;12.13;;
75793;SDS011;64418;47.536;19.074;2023-01-28T10:23:38;26.67;;;12.33;;
75793;SDS011;64418;47.536;19.074;2023-01-28T10:26:14;29.17;;;11.88;;
75793;SDS011;64418;47.536;19.074;2023-01-28T10:28:44;25.02;;;10.93;;
75793;SDS011;64418;47.536;19.074;2023-01-28T10:31:15;24.50;;;10.52;;
75793;SDS011;64418;47.536;19.074;2023-01-28T10:33:41;24.37;;;11.63;;
75793;SDS011;64418;47.536;19.074;2023-01-28T10:36:08;24.30;;;11.40;;
75793;SDS011;64418;47.536;19.074;2023-01-28T10:38:34;31.27;;;14.40;;
75793;SDS011;64418;47.536;19.074;2023-01-28T10:41:01;24.35;;;10.27;;
75793;SDS011;64418;47.536;19.074;2023-01-28T10:43:29;22.87;;;10.80;;
75793;SDS011;64418;47.536;19.074;2023-01-28T10:45:58;18.92;;;9.80;;
75793;SDS011;64418;47.536;19.074;2023-01-28T10:48:29;30.37;;;11.33;;
75793;SDS011;64418;47.536;19.074;2023-01-28T10:51:00;24.05;;;11.20;;
75793;SDS011;64418;47.536;19.074;2023-01-28T10:53:34;17.52;;;8.25;;
75793;SDS011;64418;47.536;19.074;2023-01-28T10:56:02;22.80;;;9.95;;
75793;SDS011;64418;47.536;19.074;2023-01-28T10:58:30;24.08;;;10.93;;
75793;SDS011;64418;47.536;19.074;2023-01-28T11:01:00;20.60;;;9.37;;
75793;SDS011;64418;47.536;19.074;2023-01-28T11:03:31;25.17;;;12.37;;
75793;SDS011;64418;47.536;19.074;2023-01-28T11:05:57;23.45;;;11.93;;
75793;SDS011;64418;47.536;19.074;2023-01-28T11:08:24;24.90;;;11.77;;
75793;SDS011;64418;47.536;19.074;2023-01-28T11:10:52;28.48;;;12.90;;
75793;SDS011;64418;47.536;19.074;2023-01-28T11:13:20;27.77;;;12.73;;
75793;SDS011;64418;47.536;19.074;2023-01-28T11:15:48;26.67;;;12.55;;
75793;SDS011;64418;47.536;19.074;2023-01-28T11:18:16;24.52;;;10.82;;
75793;SDS011;64418;47.536;19.074;2023-01-28T11:20:50;24.10;;;10.18;;
75793;SDS011;64418;47.536;19.074;2023-01-28T11:23:18;19.75;;;8.90;;
75793;SDS011;64418;47.536;19.074;2023-01-28T11:25:48;16.50;;;8.03;;
75793;SDS011;64418;47.536;19.074;2023-01-28T11:28:23;23.58;;;10.10;;
75793;SDS011;64418;47.536;19.074;2023-01-28T11:30:51;18.20;;;8.93;;
75793;SDS011;64418;47.536;19.074;2023-01-28T11:33:21;16.23;;;8.30;;
75793;SDS011;64418;47.536;19.074;2023-01-28T11:35:54;18.25;;;8.50;;
75793;SDS011;64418;47.536;19.074;2023-01-28T11:38:22;17.57;;;8.60;;
75793;SDS011;64418;47.536;19.074;2023-01-28T11:40:49;15.23;;;7.68;;
75793;SDS011;64418;47.536;19.074;2023-01-28T11:43:15;18.17;;;7.97;;
75793;SDS011;64418;47.536;19.074;2023-01-28T11:45:42;15.55;;;7.35;;
75793;SDS011;64418;47.536;19.074;2023-01-28T11:48:14;15.90;;;8.20;;
75793;SDS011;64418;47.536;19.074;2023-01-28T11:50:50;13.27;;;6.53;;
75793;SDS011;64418;47.536;19.074;2023-01-28T11:53:28;17.08;;;7.75;;
75793;SDS011;64418;47.536;19.074;2023-01-28T11:56:11;18.27;;;8.13;;
75793;SDS011;64418;47.536;19.074;2023-01-28T11:58:50;17.00;;;7.65;;
75793;SDS011;64418;47.536;19.074;2023-01-28T12:01:26;17.62;;;8.18;;
75793;SDS011;64418;47.536;19.074;2023-01-28T12:04:16;15.67;;;7.73;;
75793;SDS011;64418;47.536;19.074;2023-01-28T12:09:54;19.10;;;8.48;;
75793;SDS011;64418;47.536;19.074;2023-01-28T12:12:30;17.75;;;8.02;;
75793;SDS011;64418;47.536;19.074;2023-01-28T12:18:14;15.60;;;7.47;;
75793;SDS011;64418;47.536;19.074;2023-01-28T12:20:50;16.17;;;7.80;;
75793;SDS011;64418;47.536;19.074;2023-01-28T12:23:27;14.15;;;6.62;;
75793;SDS011;64418;47.536;19.074;2023-01-28T12:26:05;13.73;;;7.55;;
75793;SDS011;64418;47.536;19.074;2023-01-28T12:28:39;14.10;;;6.72;;
75793;SDS011;64418;47.536;19.074;2023-01-28T12:31:22;15.37;;;7.50;;
75793;SDS011;64418;47.536;19.074;2023-01-28T12:34:22;14.25;;;6.70;;
75793;SDS011;64418;47.536;19.074;2023-01-28T12:37:00;22.45;;;11.30;;
75793;SDS011;64418;47.536;19.074;2023-01-28T12:39:37;20.08;;;9.20;;
75793;SDS011;64418;47.536;19.074;2023-01-28T12:42:14;13.30;;;6.78;;
75793;SDS011;64418;47.536;19.074;2023-01-28T12:44:45;14.30;;;7.10;;
75793;SDS011;64418;47.536;19.074;2023-01-28T12:47:17;13.57;;;6.30;;
75793;SDS011;64418;47.536;19.074;2023-01-28T12:49:47;15.20;;;6.62;;
75793;SDS011;64418;47.536;19.074;2023-01-28T12:52:18;15.02;;;6.93;;
75793;SDS011;64418;47.536;19.074;2023-01-28T12:54:52;17.58;;;7.32;;
75793;SDS011;64418;47.536;19.074;2023-01-28T12:57:24;14.17;;;6.87;;
75793;SDS011;64418;47.536;19.074;2023-01-28T12:59:56;12.30;;;6.20;;
75793;SDS011;64418;47.536;19.074;2023-01-28T13:02:38;12.63;;;5.85;;
75793;SDS011;64418;47.536;19.074;2023-01-28T13:05:32;15.63;;;7.12;;
75793;SDS011;64418;47.536;19.074;2023-01-28T13:08:09;14.57;;;7.18;;
75793;SDS011;64418;47.536;19.074;2023-01-28T13:10:46;14.73;;;7.47;;
75793;SDS011;64418;47.536;19.074;2023-01-28T13:13:17;15.75;;;5.95;;
75793;SDS011;64418;47.536;19.074;2023-01-28T13:15:47;15.35;;;7.05;;
75793;SDS011;64418;47.536;19.074;2023-01-28T13:20:58;16.58;;;7.37;;
75793;SDS011;64418;47.536;19.074;2023-01-28T13:23:25;16.17;;;7.17;;
75793;SDS011;64418;47.536;19.074;2023-01-28T13:26:09;13.57;;;7.00;;
75793;SDS011;64418;47.536;19.074;2023-01-28T13:28:51;14.75;;;6.95;;
75793;SDS011;64418;47.536;19.074;2023-01-28T13:31:19;17.27;;;7.07;;
75793;SDS011;64418;47.536;19.074;2023-01-28T13:33:47;12.57;;;6.62;;
75793;SDS011;64418;47.536;19.074;2023-01-28T13:36:26;14.83;;;6.77;;
75793;SDS011;64418;47.536;19.074;2023-01-28T13:39:01;14.60;;;7.37;;
75793;SDS011;64418;47.536;19.074;2023-01-28T13:41:40;14.38;;;6.25;;
75793;SDS011;64418;47.536;19.074;2023-01-28T13:44:25;16.55;;;6.72;;
75793;SDS011;64418;47.536;19.074;2023-01-28T13:46:53;13.13;;;7.30;;
75793;SDS011;64418;47.536;19.074;2023-01-28T13:49:21;15.10;;;7.33;;
75793;SDS011;64418;47.536;19.074;2023-01-28T13:51:55;15.07;;;7.47;;
75793;SDS011;64418;47.536;19.074;2023-01-28T13:54:26;17.95;;;7.35;;
75793;SDS011;64418;47.536;19.074;2023-01-28T13:57:05;14.05;;;7.20;;
75793;SDS011;64418;47.536;19.074;2023-01-28T14:00:00;15.57;;;7.03;;
75793;SDS011;64418;47.536;19.074;2023-01-28T14:02:50;15.10;;;7.07;;
75793;SDS011;64418;47.536;19.074;2023-01-28T14:05:48;18.45;;;7.05;;
75793;SDS011;64418;47.536;19.074;2023-01-28T14:08:41;13.95;;;6.78;;
75793;SDS011;64418;47.536;19.074;2023-01-28T14:14:36;19.08;;;7.78;;
75793;SDS011;64418;47.536;19.074;2023-01-28T14:17:21;18.67;;;8.37;;
75793;SDS011;64418;47.536;19.074;2023-01-28T14:19:56;14.45;;;6.53;;
75793;SDS011;64418;47.536;19.074;2023-01-28T14:22:24;17.35;;;8.02;;
75793;SDS011;64418;47.536;19.074;2023-01-28T14:24:50;19.62;;;8.95;;
75793;SDS011;64418;47.536;19.074;2023-01-28T14:27:17;21.87;;;9.77;;
75793;SDS011;64418;47.536;19.074;2023-01-28T14:29:52;19.90;;;9.00;;
75793;SDS011;64418;47.536;19.074;2023-01-28T14:32:33;19.35;;;9.43;;
75793;SDS011;64418;47.536;19.074;2023-01-28T14:35:04;25.55;;;10.35;;
75793;SDS011;64418;47.536;19.074;2023-01-28T14:37:33;22.58;;;10.95;;
75793;SDS011;64418;47.536;19.074;2023-01-28T14:40:00;22.20;;;10.65;;
75793;SDS011;64418;47.536;19.074;2023-01-28T14:42:29;25.70;;;11.87;;